Spring City, Pennsylvania
Current Conditions -  °F | °C
As of 10:54 PM on Tuesday 25 Nov 2014 (Local Time) from KPTW Reporting Station
Clear Clear  
Wind Chill: 40°   Ceiling: Unl
Heat Index: 40°   Visibility: 10mi
Dew Point: 33°   Wind: 3mph
Humidity: 77%   Direction: 50°NE
Pressure: 30.17"   Gusts: NA
Location:  40.18°N, 75.55°W
Report Text: KPTW 260354Z AUTO 05003KT 10SM CLR 04/01 A3017 RMK AO2 SLP215 T00440006
Loading
Personal Weather Stations






























Interactive Weather Map New forecast layout! Learn more

10-Day Weather Forecast

Advertisements
Track Severe Weather on mobile